Arlington Heights, Massachusetts
Current Conditions -  °F | °C
As of 11:56 AM on Friday 24 Oct 2014 (Local Time) from KBED Reporting Station
Overcast Overcast  
Wind Chill: 51°   Ceiling: 1700
Heat Index: 51°   Visibility: 10mi
Dew Point: 46°   Wind: 10mph
Humidity: 83%   Direction: 330°NNW
Pressure: 29.71"   Gusts: NA
Location:  42.42°N, 71.17°W
Report Text: KBED 241556Z 33009KT 10SM OVC017 11/08 A2971 RMK AO2 RAB18E29 SLP072 P0000 T01060078
Loading
Personal Weather Stations






























Interactive Weather Map
Tropical Storm Tracking
New forecast layout! Learn more

10-Day Weather Forecast

Advertisements
Track Severe Weather on mobile